Time;durP1;ratioP1;P1;durP2;ratioP2;P2;SDS_P1;SDS_P2;PMS_P1;PMS_P2;Temp;Humidity;BMP_temperature;BMP_pressure;BME280_temperature;BME280_humidity;BME280_pressure;Samples;Min_cycle;Max_cycle;Signal;HPM_P1;HPM_P2
2022/05/03 04:02:07;;;;;;;7.70;6.90;;;6.30;96.30;;;;;;5179467;23;21034;-78
2022/05/03 04:04:37;;;;;;;8.87;7.40;;;6.30;96.30;;;;;;4955321;28;20465;-77
2022/05/03 04:07:04;;;;;;;7.90;6.60;;;6.20;96.30;;;;;;4955582;28;20509;-77
2022/05/03 04:09:30;;;;;;;7.97;6.80;;;6.20;96.30;;;;;;4954801;28;20429;-77
2022/05/03 04:11:55;;;;;;;7.00;6.30;;;6.20;96.30;;;;;;4971673;28;20436;-78
2022/05/03 04:14:21;;;;;;;9.17;6.90;;;6.20;96.30;;;;;;4956266;28;20429;-78
2022/05/03 04:16:47;;;;;;;14.00;6.80;;;6.20;96.30;;;;;;4973759;28;20270;-73
2022/05/03 04:19:12;;;;;;;9.60;7.40;;;6.20;96.30;;;;;;4971187;28;20569;-75
2022/05/03 04:21:39;;;;;;;7.90;7.00;;;6.30;96.30;;;;;;4962337;28;20202;-72
2022/05/03 04:24:05;;;;;;;8.17;7.37;;;6.60;96.30;;;;;;4953647;28;20274;-76
2022/05/03 04:26:31;;;;;;;9.33;7.07;;;7.30;96.30;;;;;;4938012;28;20442;-76
2022/05/03 04:28:57;;;;;;;10.70;9.60;;;8.00;96.30;;;;;;4972328;28;20448;-74
2022/05/03 04:31:32;;;;;;;8.80;8.00;;;8.80;96.30;;;;;;4972010;28;20186;-73
2022/05/03 04:33:58;;;;;;;9.10;8.20;;;9.70;96.30;;;;;;4953341;29;20409;-73
2022/05/03 04:36:25;;;;;;;7.33;6.57;;;10.40;96.30;;;;;;4953409;29;20937;-74
2022/05/03 04:38:51;;;;;;;7.90;5.83;;;11.00;96.30;;;;;;4952958;29;20359;-77
2022/05/03 04:41:16;;;;;;;11.20;6.80;;;11.60;96.30;;;;;;4953071;28;21016;-77
2022/05/03 04:43:42;;;;;;;14.60;7.57;;;12.20;96.30;;;;;;4953048;29;20179;-77
2022/05/03 04:46:08;;;;;;;13.97;8.63;;;12.60;96.30;;;;;;4953173;29;20198;-78
2022/05/03 04:48:34;;;;;;;14.10;9.80;;;12.80;96.30;;;;;;4952764;29;20187;-77
2022/05/03 04:50:59;;;;;;;11.00;8.60;;;13.10;96.30;;;;;;4953154;28;20717;-77
2022/05/03 04:53:25;;;;;;;8.50;5.80;;;12.90;96.30;;;;;;4955967;29;20179;-78
2022/05/03 04:55:50;;;;;;;8.73;6.03;;;12.50;96.30;;;;;;4956109;28;20183;-76
2022/05/03 04:58:16;;;;;;;9.47;5.73;;;12.30;96.30;;;;;;4966181;28;20655;-75
2022/05/03 05:00:41;;;;;;;6.60;5.40;;;12.20;96.30;;;;;;4956334;29;20218;-76
2022/05/03 05:03:07;;;;;;;13.40;5.83;;;12.10;96.30;;;;;;4956347;29;20183;-76
2022/05/03 05:05:33;;;;;;;8.20;5.63;;;11.80;96.30;;;;;;4938914;29;20229;-76
2022/05/03 05:08:03;;;;;;;8.30;6.30;;;11.90;96.30;;;;;;4955613;29;20175;-75
2022/05/03 05:10:30;;;;;;;8.70;6.10;;;11.80;96.30;;;;;;4956053;29;20222;-76
2022/05/03 05:12:56;;;;;;;7.57;5.70;;;11.60;96.30;;;;;;4974736;28;20418;-76
2022/05/03 05:15:25;;;;;;;8.20;5.47;;;11.10;96.30;;;;;;4975542;28;20465;-77
2022/05/03 05:17:52;;;;;;;7.43;5.17;;;11.00;96.30;;;;;;4961598;28;20178;-75
2022/05/03 05:20:18;;;;;;;6.60;5.70;;;10.80;96.30;;;;;;4947627;28;20450;-76
2022/05/03 05:22:44;;;;;;;10.47;6.40;;;10.60;96.30;;;;;;4968542;28;20454;-75
2022/05/03 05:25:10;;;;;;;6.60;5.80;;;10.70;96.30;;;;;;4955825;29;20233;-77
2022/05/03 05:27:36;;;;;;;7.50;5.20;;;10.70;96.30;;;;;;4955105;29;20753;-76
2022/05/03 05:30:06;;;;;;;5.90;5.30;;;10.80;96.30;;;;;;4955933;29;20167;-76
2022/05/03 05:32:33;;;;;;;6.30;5.00;;;11.50;96.30;;;;;;4955646;29;20422;-76
2022/05/03 05:34:58;;;;;;;6.77;5.27;;;12.60;96.30;;;;;;4955742;29;20419;-75
2022/05/03 05:37:24;;;;;;;9.63;6.27;;;13.60;96.30;;;;;;4955594;29;20457;-74
2022/05/03 05:39:49;;;;;;;9.50;6.10;;;14.40;96.30;;;;;;4959569;28;20194;-75
2022/05/03 05:42:15;;;;;;;7.20;5.40;;;15.30;96.30;;;;;;4944026;29;20217;-75
2022/05/03 05:44:40;;;;;;;12.90;5.40;;;16.10;96.30;;;;;;4955297;29;20206;-77
2022/05/03 05:47:06;;;;;;;8.53;5.13;;;16.70;96.30;;;;;;4971871;28;20182;-77
2022/05/03 05:49:32;;;;;;;7.30;5.40;;;16.70;96.30;;;;;;4974270;28;20195;-76
2022/05/03 05:54:41;;;;;;;6.07;4.90;;;17.70;96.30;;;;;;4955605;29;20182;-77
2022/05/03 05:57:07;;;;;;;5.30;4.80;;;18.30;95.20;;;;;;4965101;28;20421;-76
2022/05/03 05:59:32;;;;;;;8.67;5.57;;;18.40;96.30;;;;;;4974453;28;20210;-77
2022/05/03 06:01:58;;;;;;;6.73;5.00;;;19.30;92.80;;;;;;4974543;28;20608;-77
2022/05/03 06:04:23;;;;;;;8.10;7.00;;;19.50;91.40;;;;;;4974040;28;20206;-76
2022/05/03 06:06:49;;;;;;;13.53;6.20;;;19.40;92.70;;;;;;4974665;28;20170;-77
2022/05/03 06:09:14;;;;;;;7.37;6.37;;;19.50;92.60;;;;;;4964896;28;20629;-77
2022/05/03 06:11:40;;;;;;;6.70;5.23;;;19.20;95.10;;;;;;4955063;29;20214;-77
2022/05/03 06:14:05;;;;;;;5.30;4.80;;;18.70;93.50;;;;;;4955056;29;20598;-77
2022/05/03 06:16:30;;;;;;;4.77;4.23;;;19.50;93.70;;;;;;4954846;29;20183;-77
2022/05/03 06:18:56;;;;;;;5.10;4.60;;;20.20;90.20;;;;;;4954887;29;20726;-77
2022/05/03 06:21:21;;;;;;;5.63;5.13;;;20.50;89.40;;;;;;4955524;29;20697;-78
2022/05/03 06:23:47;;;;;;;5.03;4.47;;;21.00;88.20;;;;;;4955963;29;20226;-78
2022/05/03 06:26:13;;;;;;;5.20;4.70;;;21.10;87.60;;;;;;4955617;28;20669;-78
2022/05/03 06:28:39;;;;;;;5.67;4.40;;;21.90;84.30;;;;;;4958151;28;20245;-78
2022/05/03 06:31:05;;;;;;;6.67;4.60;;;22.90;82.90;;;;;;4975092;28;20189;-78
2022/05/03 06:33:30;;;;;;;6.83;4.60;;;23.30;81.90;;;;;;4974339;28;20417;-77
2022/05/03 06:35:56;;;;;;;7.43;4.37;;;23.40;80.80;;;;;;4974649;28;20202;-78
2022/05/03 06:38:21;;;;;;;6.00;4.57;;;23.10;80.80;;;;;;4974239;28;20196;-77
2022/05/03 06:40:47;;;;;;;6.10;4.63;;;23.00;78.80;;;;;;4947883;28;20672;-78
2022/05/03 06:43:12;;;;;;;5.10;4.60;;;21.90;82.30;;;;;;4974228;28;20190;-77
2022/05/03 06:45:38;;;;;;;6.13;5.00;;;22.50;81.90;;;;;;4966804;28;20214;-78
2022/05/03 06:48:06;;;;;;;6.00;5.40;;;23.20;82.50;;;;;;4965084;28;20177;-77
2022/05/03 06:50:32;;;;;;;5.57;5.07;;;23.70;80.50;;;;;;4967872;28;20198;-77
2022/05/03 06:52:58;;;;;;;6.10;5.20;;;23.50;79.40;;;;;;4968028;28;20999;-79
2022/05/03 06:55:23;;;;;;;11.13;5.33;;;23.40;80.10;;;;;;4961642;28;20182;-78
2022/05/03 06:57:49;;;;;;;7.17;5.30;;;22.60;81.10;;;;;;4962688;28;20190;-79
2022/05/03 07:00:16;;;;;;;6.33;4.80;;;23.50;79.60;;;;;;4959450;28;20194;-79
2022/05/03 07:02:44;;;;;;;5.87;5.20;;;23.90;78.10;;;;;;4941419;29;20269;-78
2022/05/03 07:05:10;;;;;;;9.30;5.43;;;23.80;78.90;;;;;;4958541;29;20466;-79
2022/05/03 07:07:36;;;;;;;9.63;4.80;;;24.00;77.50;;;;;;4958769;29;20421;-79
2022/05/03 07:10:02;;;;;;;6.00;5.40;;;23.90;78.60;;;;;;4941068;29;20182;-78
2022/05/03 07:12:29;;;;;;;7.77;5.80;;;24.20;75.50;;;;;;4958940;29;20194;-79
2022/05/03 07:15:12;;;;;;;9.73;5.57;;;23.70;78.20;;;;;;4957909;28;20482;-77
2022/05/03 07:23:08;;;;;;;10.13;6.10;;;24.90;75.10;;;;;;4958719;29;20469;-79
2022/05/03 07:25:34;;;;;;;6.23;5.63;;;24.20;76.20;;;;;;4958383;29;20623;-78
2022/05/03 07:28:00;;;;;;;7.33;5.93;;;22.80;78.50;;;;;;4956802;29;20417;-77
2022/05/03 07:30:26;;;;;;;6.17;5.57;;;21.60;81.40;;;;;;4956836;29;20461;-78
2022/05/03 07:32:51;;;;;;;6.80;5.70;;;21.40;83.00;;;;;;4956674;29;20177;-77
2022/05/03 07:35:17;;;;;;;6.20;5.60;;;21.10;85.00;;;;;;4966573;28;20545;-77
2022/05/03 07:37:43;;;;;;;6.37;5.20;;;20.80;85.40;;;;;;4951177;29;20686;-78
2022/05/03 07:40:09;;;;;;;7.73;6.47;;;20.00;87.20;;;;;;4956603;29;20174;-77
2022/05/03 07:42:35;;;;;;;6.70;5.40;;;20.00;88.00;;;;;;4973352;28;21064;-78
2022/05/03 07:45:01;;;;;;;7.00;5.63;;;19.90;88.40;;;;;;4958404;28;20453;-78
2022/05/03 07:47:27;;;;;;;7.50;5.43;;;19.40;87.90;;;;;;4975560;28;20409;-76
2022/05/03 07:49:53;;;;;;;11.40;5.63;;;19.60;90.10;;;;;;4959255;28;20221;-77
2022/05/03 07:52:18;;;;;;;7.80;6.30;;;20.20;88.10;;;;;;4938889;29;20198;-78
2022/05/03 07:54:44;;;;;;;11.27;5.50;;;20.00;87.00;;;;;;4955485;29;20776;-77
2022/05/03 07:57:12;;;;;;;6.30;5.73;;;19.80;89.70;;;;;;4957057;28;20186;-76
2022/05/03 07:59:38;;;;;;;9.77;5.80;;;19.70;89.00;;;;;;4956077;29;20171;-78
2022/05/03 08:02:04;;;;;;;6.90;6.00;;;19.30;88.30;;;;;;4955880;29;20512;-76
2022/05/03 08:04:29;;;;;;;9.73;6.70;;;19.60;89.70;;;;;;4955639;29;21060;-78
2022/05/03 08:06:55;;;;;;;10.53;5.70;;;19.60;87.50;;;;;;4956016;29;20179;-77
2022/05/03 08:09:21;;;;;;;9.00;5.53;;;19.20;90.50;;;;;;4955371;29;20175;-77
2022/05/03 08:11:46;;;;;;;8.20;5.10;;;19.40;90.10;;;;;;4955901;29;20223;-76
2022/05/03 08:14:12;;;;;;;8.57;6.10;;;19.00;90.20;;;;;;4938088;29;20686;-78
2022/05/03 08:16:38;;;;;;;8.47;6.40;;;19.00;90.20;;;;;;4956057;29;20203;-77
2022/05/03 08:19:04;;;;;;;7.00;6.30;;;19.10;93.40;;;;;;4938155;29;20182;-78
2022/05/03 08:21:32;;;;;;;7.67;5.83;;;20.30;93.30;;;;;;4955894;29;20279;-77
2022/05/03 08:24:01;;;;;;;10.20;6.03;;;20.90;85.00;;;;;;4955866;29;20461;-78
2022/05/03 08:26:27;;;;;;;6.80;5.40;;;21.60;82.90;;;;;;4957409;28;20410;-76
2022/05/03 08:28:52;;;;;;;12.53;5.60;;;21.70;80.90;;;;;;4959439;29;20441;-78
2022/05/03 08:31:19;;;;;;;7.70;5.63;;;21.90;80.10;;;;;;4960412;29;20199;-78
2022/05/03 08:33:44;;;;;;;7.87;5.47;;;22.60;81.90;;;;;;4960017;29;20589;-78
2022/05/03 08:36:11;;;;;;;6.97;5.50;;;23.20;79.40;;;;;;4959527;29;20426;-77
2022/05/03 08:44:04;;;;;;;7.87;5.53;;;23.30;75.60;;;;;;4956992;29;20417;-73
2022/05/03 08:46:31;;;;;;;17.10;6.40;;;23.10;75.90;;;;;;4956907;29;20419;-73
2022/05/03 08:49:01;;;;;;;12.83;5.60;;;23.40;77.70;;;;;;4956704;29;20182;-73
2022/05/03 08:51:29;;;;;;;6.13;5.53;;;22.90;78.80;;;;;;4956844;29;20807;-73
2022/05/03 08:53:56;;;;;;;7.43;6.00;;;22.70;80.80;;;;;;4956878;29;20410;-73
2022/05/03 08:56:22;;;;;;;8.50;6.00;;;22.50;81.30;;;;;;4956735;29;20423;-73
2022/05/03 08:58:48;;;;;;;7.73;5.73;;;22.30;80.50;;;;;;4956896;29;20828;-73
2022/05/03 09:01:15;;;;;;;9.23;5.27;;;21.20;78.70;;;;;;4956569;29;20509;-74
2022/05/03 09:03:40;;;;;;;10.30;5.80;;;21.50;82.50;;;;;;4939512;28;20258;-74
2022/05/03 09:06:07;;;;;;;8.70;5.70;;;21.50;84.40;;;;;;4956610;29;20489;-76
2022/05/03 09:08:34;;;;;;;9.53;6.50;;;21.60;84.30;;;;;;4956473;29;20194;-74
2022/05/03 09:11:11;;;;;;;12.93;6.67;;;21.80;83.50;;;;;;4956505;29;20438;-73
2022/05/03 09:13:36;;;;;;;10.43;7.70;;;22.50;81.20;;;;;;4956805;29;20422;-76
2022/05/03 09:16:10;;;;;;;9.20;7.67;;;23.10;82.10;;;;;;4956985;29;20469;-73
2022/05/03 09:18:37;;;;;;;10.17;7.10;;;23.30;83.10;;;;;;4956368;29;20233;-73
2022/05/03 09:24:01;;;;;;;7.00;6.40;;;22.50;76.20;;;;;;4956522;29;20441;-77
2022/05/03 09:26:30;;;;;;;12.67;7.30;;;22.20;78.10;;;;;;4956361;29;20909;-74
2022/05/03 09:29:10;;;;;;;8.10;7.20;;;21.90;81.30;;;;;;4939029;29;20425;-73
2022/05/03 09:31:37;;;;;;;9.40;7.30;;;20.70;82.90;;;;;;4959444;28;20460;-73
2022/05/03 09:34:26;;;;;;;10.80;6.77;;;20.30;85.10;;;;;;4975435;28;20410;-73
2022/05/03 09:36:54;;;;;;;13.13;7.70;;;19.80;85.50;;;;;;4975339;28;20425;-73
2022/05/03 09:39:27;;;;;;;9.20;6.73;;;20.30;87.30;;;;;;4974605;28;20398;-74
2022/05/03 09:42:12;;;;;;;14.50;7.27;;;21.50;86.90;;;;;;4975336;28;20418;-73
2022/05/03 09:44:49;;;;;;;10.10;6.70;;;22.30;81.80;;;;;;4975244;28;20533;-73
2022/05/03 09:47:15;;;;;;;7.60;6.90;;;22.20;80.80;;;;;;4975140;28;20733;-73
2022/05/03 09:49:42;;;;;;;10.53;7.00;;;21.20;78.90;;;;;;4974923;28;20496;-73
2022/05/03 09:52:12;;;;;;;6.90;6.30;;;20.50;82.80;;;;;;4975140;28;20205;-74
2022/05/03 09:54:50;;;;;;;7.40;6.70;;;20.40;86.40;;;;;;4975695;28;20394;-78
2022/05/03 09:57:24;;;;;;;8.67;7.20;;;19.80;80.90;;;;;;4974934;28;20424;-78
2022/05/03 09:59:52;;;;;;;10.43;6.97;;;20.00;83.10;;;;;;4971917;28;20428;-78
2022/05/03 10:02:19;;;;;;;10.07;7.30;;;20.00;79.40;;;;;;4974718;28;20457;-77
2022/05/03 10:04:46;;;;;;;8.23;7.33;;;19.60;81.90;;;;;;4974436;28;20948;-78
2022/05/03 10:07:12;;;;;;;11.70;7.03;;;19.70;84.50;;;;;;4974665;28;20771;-78
2022/05/03 10:09:40;;;;;;;8.87;6.73;;;20.50;82.20;;;;;;4974539;28;20410;-78
2022/05/03 10:12:08;;;;;;;8.20;6.80;;;20.60;79.20;;;;;;4974843;28;21113;-77
2022/05/03 10:14:34;;;;;;;18.40;7.90;;;20.90;78.10;;;;;;4975579;28;20420;-73
2022/05/03 11:58:29;;;;;;;10.43;6.53;;;20.70;76.00;;;;;;5820914;23;20492;-78
2022/05/03 12:00:55;;;;;;;9.60;5.80;;;20.10;78.90;;;;;;4973009;28;20504;-78
2022/05/03 12:03:20;;;;;;;10.97;7.00;;;20.00;78.60;;;;;;4990733;28;20519;-78
2022/05/03 12:05:58;;;;;;;7.50;6.40;;;20.20;80.90;;;;;;4978872;28;20687;-78
2022/05/03 12:08:24;;;;;;;9.20;6.30;;;20.50;75.80;;;;;;4996302;28;20502;-78
2022/05/03 12:10:50;;;;;;;7.80;6.20;;;19.90;75.50;;;;;;4978700;28;20799;-78
2022/05/03 12:13:25;;;;;;;9.30;6.57;;;20.30;79.80;;;;;;4989371;28;20420;-78
2022/05/03 12:15:59;;;;;;;7.47;6.80;;;21.20;79.70;;;;;;4995519;28;20495;-78
2022/05/03 12:18:27;;;;;;;7.70;5.93;;;20.60;80.00;;;;;;4992532;28;20499;-78
2022/05/03 12:20:54;;;;;;;9.23;7.47;;;20.30;79.10;;;;;;4993935;28;20962;-78
2022/05/03 12:23:42;;;;;;;9.77;6.90;;;20.20;78.60;;;;;;4978585;28;20920;-77
2022/05/03 12:26:18;;;;;;;8.60;7.40;;;19.90;78.10;;;;;;4986005;28;20467;-78
2022/05/03 12:28:51;;;;;;;14.77;8.20;;;20.00;78.90;;;;;;4976513;28;20416;-78
2022/05/03 12:31:19;;;;;;;11.70;7.90;;;20.20;80.60;;;;;;4976401;28;20860;-78
2022/05/03 12:33:53;;;;;;;8.40;6.57;;;20.30;86.00;;;;;;4976610;28;20427;-77
2022/05/03 12:36:32;;;;;;;11.47;7.43;;;20.90;86.80;;;;;;4976785;28;20466;-77
2022/05/03 12:39:09;;;;;;;7.77;6.30;;;20.90;76.00;;;;;;4976472;28;20424;-77
2022/05/03 12:41:35;;;;;;;9.57;6.77;;;21.30;81.30;;;;;;4978851;28;20455;-78
2022/05/03 12:44:03;;;;;;;8.20;6.77;;;21.10;76.90;;;;;;4993286;28;20413;-77
2022/05/03 12:46:29;;;;;;;11.77;7.03;;;21.00;83.20;;;;;;4995708;28;20932;-78
2022/05/03 12:48:55;;;;;;;11.90;7.20;;;21.10;81.00;;;;;;4995553;28;20415;-77
2022/05/03 12:51:21;;;;;;;11.50;6.10;;;21.30;83.90;;;;;;4984590;28;20437;-78
2022/05/03 12:53:48;;;;;;;7.80;6.77;;;21.90;84.10;;;;;;4976464;28;20558;-78
2022/05/03 12:59:08;;;;;;;8.10;6.70;;;22.20;80.80;;;;;;4939712;28;20486;-77
2022/05/03 13:01:35;;;;;;;8.60;6.80;;;22.10;77.60;;;;;;4976013;28;20519;-78
2022/05/03 13:04:01;;;;;;;9.77;7.10;;;21.90;73.80;;;;;;4975813;28;20185;-78
2022/05/03 13:06:26;;;;;;;6.73;6.10;;;21.40;76.90;;;;;;4975839;28;20413;-77
2022/05/03 13:08:53;;;;;;;8.83;6.50;;;21.40;74.90;;;;;;4975617;28;20179;-78
2022/05/03 13:11:19;;;;;;;9.90;6.70;;;21.40;75.20;;;;;;4958305;28;20201;-77
2022/05/03 13:13:45;;;;;;;7.00;5.70;;;21.30;75.10;;;;;;4974271;28;20425;-78
2022/05/03 13:16:10;;;;;;;9.23;5.63;;;21.00;77.50;;;;;;4983655;28;20198;-78
2022/05/03 13:18:36;;;;;;;9.97;5.50;;;20.90;83.60;;;;;;4975516;28;20206;-78
2022/05/03 13:21:02;;;;;;;15.90;6.10;;;20.60;83.70;;;;;;4975573;28;20198;-78
2022/05/03 13:23:29;;;;;;;10.90;6.13;;;20.60;80.20;;;;;;4978484;28;20264;-78
2022/05/03 13:25:54;;;;;;;6.27;5.67;;;20.50;78.60;;;;;;4976420;28;20465;-78
2022/05/03 13:28:20;;;;;;;5.60;4.73;;;20.20;79.90;;;;;;4975199;28;20505;-77
2022/05/03 13:30:46;;;;;;;10.13;5.63;;;19.80;80.20;;;;;;4969627;28;20678;-77
2022/05/03 13:33:12;;;;;;;6.70;6.07;;;19.60;84.20;;;;;;4975309;28;20179;-77
2022/05/03 13:41:06;;;;;;;6.50;5.30;;;19.40;80.20;;;;;;4976048;28;20798;-77
2022/05/03 13:43:32;;;;;;;8.83;5.30;;;19.60;82.50;;;;;;4975234;28;20422;-77
2022/05/03 13:45:58;;;;;;;8.60;6.60;;;19.60;80.90;;;;;;4975107;28;20696;-77
2022/05/03 13:48:25;;;;;;;6.70;6.10;;;19.40;81.40;;;;;;4974921;28;20205;-78
2022/05/03 13:50:51;;;;;;;6.13;4.70;;;19.20;84.30;;;;;;4974925;28;20444;-77
2022/05/03 13:53:17;;;;;;;5.90;5.27;;;19.00;83.30;;;;;;4975000;28;20402;-78
2022/05/03 13:55:43;;;;;;;15.23;5.43;;;18.70;84.80;;;;;;4974830;28;20217;-77
2022/05/03 13:58:09;;;;;;;5.87;5.30;;;18.90;86.90;;;;;;4974620;28;20197;-76
2022/05/03 14:00:37;;;;;;;7.87;5.10;;;19.30;84.90;;;;;;4957565;28;20809;-77
2022/05/03 14:03:03;;;;;;;7.80;5.10;;;19.70;82.00;;;;;;4974728;28;20417;-75
2022/05/03 14:05:29;;;;;;;7.57;5.03;;;19.80;82.60;;;;;;4974864;28;20476;-78
2022/05/03 14:07:55;;;;;;;7.93;5.77;;;19.60;83.20;;;;;;4974531;28;20914;-78
2022/05/03 14:10:21;;;;;;;7.23;6.00;;;19.40;86.00;;;;;;4973356;28;20646;-78
2022/05/03 14:12:47;;;;;;;10.87;6.30;;;19.40;87.80;;;;;;4971320;28;20420;-77
2022/05/03 14:15:12;;;;;;;7.73;5.47;;;19.50;87.20;;;;;;4994101;28;20173;-78
2022/05/03 14:17:38;;;;;;;5.87;5.37;;;19.50;85.50;;;;;;4993807;28;20190;-79
2022/05/03 14:20:04;;;;;;;8.73;4.90;;;19.50;84.80;;;;;;4993989;28;20174;-77
2022/05/03 14:22:30;;;;;;;6.47;5.10;;;19.30;87.10;;;;;;4993918;28;20806;-78
2022/05/03 14:24:55;;;;;;;6.97;5.17;;;19.10;87.00;;;;;;4985531;28;20461;-77
2022/05/03 14:27:21;;;;;;;5.40;4.90;;;18.80;86.20;;;;;;4974446;28;20170;-78
2022/05/03 14:29:47;;;;;;;7.33;5.03;;;18.50;88.10;;;;;;4974100;28;20583;-78
2022/05/03 14:32:12;;;;;;;7.33;5.93;;;18.40;86.80;;;;;;4974154;28;20521;-78
2022/05/03 14:34:38;;;;;;;6.57;5.83;;;18.20;86.10;;;;;;4974387;28;20976;-77
2022/05/03 14:37:04;;;;;;;11.30;5.60;;;18.20;86.10;;;;;;4974286;28;20516;-78
2022/05/03 14:39:29;;;;;;;5.70;5.20;;;18.20;87.70;;;;;;4958548;28;20225;-77
2022/05/03 14:41:55;;;;;;;9.43;6.00;;;18.10;88.50;;;;;;4990730;28;20212;-77
2022/05/03 14:44:20;;;;;;;8.37;6.00;;;17.90;87.20;;;;;;4993488;28;20646;-76
2022/05/03 14:46:46;;;;;;;20.00;7.00;;;17.70;88.70;;;;;;4993452;28;20170;-77
2022/05/03 14:49:11;;;;;;;7.70;5.33;;;17.50;87.20;;;;;;4993160;28;20174;-77
2022/05/03 14:51:37;;;;;;;10.93;5.90;;;17.20;85.90;;;;;;4993319;28;20272;-76
2022/05/03 14:54:04;;;;;;;6.50;5.80;;;17.20;88.10;;;;;;4985222;28;20623;-76
2022/05/03 15:04:42;;;;;;;12.07;6.10;;;17.30;87.80;;;;;;4954518;29;20492;-73
2022/05/03 15:07:07;;;;;;;9.10;5.60;;;17.30;91.90;;;;;;4954640;29;20411;-74
2022/05/03 15:09:33;;;;;;;9.07;6.50;;;17.40;91.10;;;;;;4954226;29;20261;-74
2022/05/03 15:11:58;;;;;;;7.70;5.60;;;17.20;89.10;;;;;;4966605;28;20619;-74
2022/05/03 15:14:24;;;;;;;16.40;5.97;;;17.20;90.60;;;;;;4989157;28;20185;-73
2022/05/03 15:16:49;;;;;;;6.97;4.90;;;17.30;92.50;;;;;;4984421;28;20190;-74
2022/05/03 15:19:15;;;;;;;7.80;6.00;;;17.40;90.70;;;;;;4976896;28;20186;-76
2022/05/03 15:21:40;;;;;;;17.60;6.30;;;17.70;89.60;;;;;;4979728;28;20198;-77
2022/05/03 15:26:50;;;;;;;8.23;6.00;;;18.20;84.30;;;;;;4960798;28;20266;-77
2022/05/03 15:29:16;;;;;;;8.87;5.40;;;18.20;85.60;;;;;;4963078;28;20497;-76
2022/05/03 15:31:43;;;;;;;12.33;5.50;;;18.30;88.50;;;;;;4963879;28;20194;-75
2022/05/03 15:34:10;;;;;;;8.87;5.87;;;18.10;88.10;;;;;;4973351;28;20178;-76
2022/05/03 15:36:35;;;;;;;6.17;5.53;;;18.00;89.40;;;;;;4972642;28;20402;-73
2022/05/03 15:39:01;;;;;;;9.73;5.40;;;17.80;89.40;;;;;;4972909;28;20416;-77
2022/05/03 15:41:26;;;;;;;7.30;5.40;;;18.00;90.10;;;;;;4973138;28;20230;-76
2022/05/03 15:43:52;;;;;;;7.93;5.90;;;18.20;89.50;;;;;;4972829;28;20186;-76
2022/05/03 15:46:18;;;;;;;8.30;5.83;;;18.30;86.40;;;;;;4961294;28;20219;-76
2022/05/03 15:48:44;;;;;;;7.70;4.80;;;18.50;88.30;;;;;;4953193;28;20302;-75
2022/05/03 15:51:10;;;;;;;12.03;5.27;;;18.50;89.40;;;;;;4953771;29;20517;-77
2022/05/03 15:53:35;;;;;;;8.27;5.00;;;18.60;86.40;;;;;;4940476;28;20202;-76
2022/05/03 15:56:01;;;;;;;6.47;5.00;;;19.00;86.70;;;;;;4966041;28;20178;-77
2022/05/03 15:58:30;;;;;;;7.70;4.87;;;19.00;85.00;;;;;;4962199;28;20178;-77
2022/05/03 16:00:55;;;;;;;6.33;4.60;;;18.70;81.80;;;;;;4962467;28;20697;-77
2022/05/03 16:03:21;;;;;;;10.43;5.17;;;18.60;85.10;;;;;;4972028;28;20426;-77
2022/05/03 16:05:47;;;;;;;8.30;4.73;;;18.60;82.40;;;;;;4962216;28;20207;-77
2022/05/03 16:08:13;;;;;;;10.83;5.60;;;18.70;87.40;;;;;;4966644;28;20182;-77
2022/05/03 16:10:40;;;;;;;6.60;5.53;;;18.70;88.10;;;;;;4967028;28;20954;-78
2022/05/03 16:13:06;;;;;;;5.60;5.10;;;18.60;85.60;;;;;;4966536;28;20514;-76
2022/05/03 16:15:33;;;;;;;10.10;4.77;;;18.40;87.30;;;;;;4955102;28;20413;-78
2022/05/03 16:18:28;;;;;;;6.00;5.40;;;18.10;86.90;;;;;;4964540;28;20418;-75
2022/05/03 16:20:54;;;;;;;21.13;5.50;;;17.60;89.80;;;;;;4961467;28;20667;-74
2022/05/03 16:23:19;;;;;;;6.23;5.63;;;17.00;90.40;;;;;;4972675;28;20872;-74
2022/05/03 16:25:45;;;;;;;10.87;5.57;;;16.80;90.80;;;;;;4972856;28;20202;-74
2022/05/03 16:28:10;;;;;;;12.53;5.63;;;16.70;91.70;;;;;;4971722;28;20665;-74
2022/05/03 16:30:36;;;;;;;7.30;6.00;;;16.60;90.90;;;;;;4972008;28;20273;-74
2022/05/03 16:33:01;;;;;;;12.10;5.90;;;16.70;93.50;;;;;;4955173;28;20606;-74
2022/05/03 16:35:27;;;;;;;7.10;6.13;;;16.80;92.50;;;;;;4972843;28;20807;-74
2022/05/03 16:43:20;;;;;;;11.47;5.03;;;16.70;93.30;;;;;;4969091;28;20441;-75
2022/05/03 16:45:46;;;;;;;5.37;4.87;;;16.40;93.50;;;;;;4970656;28;20481;-74
2022/05/03 16:48:11;;;;;;;6.90;4.50;;;16.50;94.50;;;;;;4990741;28;20261;-73
2022/05/03 16:50:37;;;;;;;6.40;4.90;;;16.60;93.90;;;;;;4976164;28;20198;-74
2022/05/03 16:53:03;;;;;;;10.60;5.13;;;16.70;92.40;;;;;;4951934;29;20170;-75
2022/05/03 16:55:28;;;;;;;8.13;5.40;;;16.80;93.50;;;;;;4978320;28;20190;-76
2022/05/03 16:57:54;;;;;;;10.27;5.63;;;16.80;93.40;;;;;;4992524;28;20527;-74
2022/05/03 17:00:21;;;;;;;6.10;5.40;;;16.80;89.70;;;;;;4975113;28;20189;-73
2022/05/03 17:02:46;;;;;;;5.70;4.30;;;16.80;92.20;;;;;;4977927;28;20465;-74
2022/05/03 17:05:12;;;;;;;6.00;5.00;;;16.80;91.50;;;;;;4975877;28;20457;-74
2022/05/03 17:07:37;;;;;;;7.40;5.50;;;16.80;93.60;;;;;;4975004;28;20174;-74
2022/05/03 17:10:03;;;;;;;12.10;4.80;;;16.70;90.90;;;;;;4975799;28;20166;-77
2022/05/03 17:25:44;;;;;;;4.90;4.40;;;16.50;94.10;;;;;;4564637;23;20490;-75
2022/05/03 17:28:09;;;;;;;5.83;4.40;;;16.40;96.30;;;;;;4977699;28;20445;-74
2022/05/03 17:30:35;;;;;;;6.57;4.33;;;16.00;93.60;;;;;;4968032;28;20484;-73
2022/05/03 17:33:03;;;;;;;5.20;4.50;;;15.80;94.50;;;;;;4961964;28;20647;-74
2022/05/03 17:35:29;;;;;;;8.70;4.57;;;15.80;93.30;;;;;;4950784;29;20171;-74
2022/05/03 17:37:54;;;;;;;8.40;5.20;;;15.80;93.60;;;;;;4963203;28;20773;-74
2022/05/03 17:40:20;;;;;;;7.20;5.20;;;15.80;93.30;;;;;;4941207;29;20211;-75
2022/05/03 17:42:47;;;;;;;10.20;6.40;;;15.70;94.80;;;;;;4955328;28;20201;-74
2022/05/03 17:45:13;;;;;;;7.10;4.80;;;15.50;95.00;;;;;;4955771;28;20198;-74
2022/05/03 17:47:39;;;;;;;7.07;5.20;;;15.40;95.40;;;;;;4938882;29;20425;-74
2022/05/03 17:50:05;;;;;;;7.40;4.90;;;15.30;96.30;;;;;;4956680;28;20176;-75
2022/05/03 18:00:17;;;;;;;8.60;5.70;;;14.30;96.30;;;;;;4830755;23;20489;-74
2022/05/03 18:02:42;;;;;;;16.03;5.50;;;14.10;96.30;;;;;;4955269;29;20776;-73
2022/05/03 18:05:13;;;;;;;8.53;4.87;;;13.90;96.30;;;;;;4955118;29;20458;-73
2022/05/03 18:07:39;;;;;;;7.80;4.83;;;13.70;96.30;;;;;;4954692;29;20190;-73
2022/05/03 18:10:05;;;;;;;5.97;5.37;;;13.30;96.30;;;;;;4955482;29;20438;-73
2022/05/03 18:12:32;;;;;;;7.50;5.47;;;13.00;96.30;;;;;;4954688;29;20277;-73
2022/05/03 18:14:58;;;;;;;5.73;5.23;;;12.90;96.30;;;;;;4954914;29;20429;-73
2022/05/03 18:17:24;;;;;;;6.60;4.90;;;12.80;96.30;;;;;;4959075;29;20418;-75
2022/05/03 18:19:49;;;;;;;7.97;4.60;;;12.60;96.30;;;;;;4936853;29;20187;-76
2022/05/03 18:22:15;;;;;;;13.07;5.07;;;12.40;96.30;;;;;;4937301;29;20206;-76
2022/05/03 18:24:40;;;;;;;7.90;5.30;;;12.20;96.30;;;;;;4954325;29;20289;-75
2022/05/03 18:27:06;;;;;;;8.63;5.50;;;12.10;96.30;;;;;;4954360;29;20241;-76
2022/05/03 18:29:32;;;;;;;8.57;5.20;;;12.00;96.30;;;;;;4953942;29;20712;-76
2022/05/03 18:31:59;;;;;;;5.70;4.93;;;12.00;96.30;;;;;;4954402;29;21272;-76
2022/05/03 18:34:24;;;;;;;8.30;5.90;;;11.80;96.30;;;;;;4954303;29;20914;-76
2022/05/03 18:36:50;;;;;;;5.83;5.23;;;11.70;96.30;;;;;;4954296;29;20407;-76
2022/05/03 18:39:15;;;;;;;9.23;5.67;;;11.50;96.30;;;;;;4944150;29;20237;-76
2022/05/03 18:41:41;;;;;;;6.43;5.47;;;11.30;96.30;;;;;;4917652;29;20210;-75
2022/05/03 18:44:07;;;;;;;19.10;6.37;;;11.20;96.30;;;;;;4934817;29;20183;-77
2022/05/03 18:46:34;;;;;;;6.07;5.47;;;11.10;96.30;;;;;;4934910;29;20207;-75
2022/05/03 18:48:59;;;;;;;10.33;6.40;;;11.00;96.30;;;;;;4934001;29;20474;-76
2022/05/03 18:51:25;;;;;;;7.27;5.67;;;10.90;96.30;;;;;;4934527;29;20444;-76
2022/05/03 18:55:40;;;;;;;8.33;6.90;;;10.90;96.30;;;;;;4934661;29;20221;-75
2022/05/03 18:56:36;;;;;;;8.90;6.37;;;10.80;96.30;;;;;;4934709;29;20218;-76
2022/05/03 18:59:02;;;;;;;9.93;5.83;;;10.70;96.30;;;;;;4934100;29;20464;-76
2022/05/03 19:01:28;;;;;;;7.50;6.80;;;10.60;96.30;;;;;;4934491;29;20222;-75
2022/05/03 19:03:54;;;;;;;7.00;6.20;;;10.80;96.30;;;;;;4917614;29;20187;-76
2022/05/03 19:06:19;;;;;;;6.73;5.73;;;10.70;96.30;;;;;;4934471;29;20203;-76
2022/05/03 19:08:45;;;;;;;9.10;6.17;;;10.60;96.30;;;;;;4934008;29;20754;-75
2022/05/03 19:11:10;;;;;;;8.83;6.40;;;10.60;96.30;;;;;;4933408;29;20192;-75
2022/05/03 19:13:36;;;;;;;9.17;6.90;;;10.50;96.30;;;;;;4934685;29;20203;-75
2022/05/03 19:16:01;;;;;;;9.43;6.20;;;10.30;96.30;;;;;;4938818;29;20179;-76
2022/05/03 19:18:26;;;;;;;13.97;7.40;;;10.20;96.30;;;;;;4952931;29;20194;-77
2022/05/03 19:20:52;;;;;;;11.93;9.70;;;10.10;96.30;;;;;;4953521;29;20254;-76
2022/05/03 19:23:17;;;;;;;15.27;10.70;;;10.10;96.30;;;;;;4953722;29;20670;-77
2022/05/03 19:31:12;;;;;;;12.70;10.17;;;9.70;96.30;;;;;;4953463;29;20433;-76
2022/05/03 19:33:39;;;;;;;12.10;9.43;;;9.60;96.30;;;;;;4935903;29;20423;-77